sensor_id;sensor_type;location;lat;lon;timestamp;pressure;altitude;pressure_sealevel;temperature;humidity
74613;BME280;63119;51.788;8.824;2023-07-20T00:01:29;99760.31;;;17.38;87.56
74613;BME280;63119;51.788;8.824;2023-07-20T00:03:55;99769.06;;;17.48;87.26
74613;BME280;63119;51.788;8.824;2023-07-20T00:06:21;99768.34;;;17.56;87.41
74613;BME280;63119;51.788;8.824;2023-07-20T00:08:47;99763.84;;;17.57;87.02
74613;BME280;63119;51.788;8.824;2023-07-20T00:11:13;99767.88;;;17.61;86.99
74613;BME280;63119;51.788;8.824;2023-07-20T00:13:39;99772.84;;;17.56;87.48
74613;BME280;63119;51.788;8.824;2023-07-20T00:16:04;99779.28;;;17.63;87.42
74613;BME280;63119;51.788;8.824;2023-07-20T00:18:30;99777.28;;;17.65;87.48
74613;BME280;63119;51.788;8.824;2023-07-20T00:20:55;99764.13;;;17.71;87.38
74613;BME280;63119;51.788;8.824;2023-07-20T00:23:20;99755.22;;;17.63;87.29
74613;BME280;63119;51.788;8.824;2023-07-20T00:25:48;99761.91;;;17.67;87.00
74613;BME280;63119;51.788;8.824;2023-07-20T00:28:13;99749.66;;;17.46;88.09
74613;BME280;63119;51.788;8.824;2023-07-20T00:30:39;99755.03;;;17.29;89.24
74613;BME280;63119;51.788;8.824;2023-07-20T00:33:04;99756.00;;;17.28;88.80
74613;BME280;63119;51.788;8.824;2023-07-20T00:35:29;99755.41;;;17.16;89.76
74613;BME280;63119;51.788;8.824;2023-07-20T00:37:55;99759.97;;;17.24;89.47
74613;BME280;63119;51.788;8.824;2023-07-20T00:40:20;99763.59;;;17.32;89.41
74613;BME280;63119;51.788;8.824;2023-07-20T00:42:45;99757.75;;;17.37;88.85
74613;BME280;63119;51.788;8.824;2023-07-20T00:45:11;99764.03;;;17.45;88.25
74613;BME280;63119;51.788;8.824;2023-07-20T00:47:36;99755.25;;;17.35;88.95
74613;BME280;63119;51.788;8.824;2023-07-20T00:50:02;99765.34;;;17.41;88.97
74613;BME280;63119;51.788;8.824;2023-07-20T00:52:29;99763.34;;;17.43;88.84
74613;BME280;63119;51.788;8.824;2023-07-20T00:54:55;99755.56;;;17.32;88.71
74613;BME280;63119;51.788;8.824;2023-07-20T00:57:22;99755.88;;;17.29;89.11
74613;BME280;63119;51.788;8.824;2023-07-20T00:59:49;99760.13;;;17.22;89.60
74613;BME280;63119;51.788;8.824;2023-07-20T01:02:14;99759.09;;;17.51;88.74
74613;BME280;63119;51.788;8.824;2023-07-20T01:04:40;99760.63;;;17.35;88.86
74613;BME280;63119;51.788;8.824;2023-07-20T01:07:13;99764.84;;;17.56;88.05
74613;BME280;63119;51.788;8.824;2023-07-20T01:09:44;99747.59;;;17.40;88.46
74613;BME280;63119;51.788;8.824;2023-07-20T01:12:23;99757.22;;;17.33;89.05
74613;BME280;63119;51.788;8.824;2023-07-20T01:14:51;99760.63;;;17.35;88.52
74613;BME280;63119;51.788;8.824;2023-07-20T01:17:16;99756.78;;;17.38;88.18
74613;BME280;63119;51.788;8.824;2023-07-20T01:19:41;99762.44;;;17.35;88.63
74613;BME280;63119;51.788;8.824;2023-07-20T01:25:09;99764.81;;;17.38;88.75
74613;BME280;63119;51.788;8.824;2023-07-20T01:30:34;99743.78;;;17.43;89.04
74613;BME280;63119;51.788;8.824;2023-07-20T01:33:06;99748.53;;;17.31;89.33
74613;BME280;63119;51.788;8.824;2023-07-20T01:35:33;99741.19;;;17.16;89.71
74613;BME280;63119;51.788;8.824;2023-07-20T01:38:00;99746.75;;;17.22;89.79
74613;BME280;63119;51.788;8.824;2023-07-20T01:40:26;99757.28;;;17.06;90.52
74613;BME280;63119;51.788;8.824;2023-07-20T01:42:52;99756.59;;;17.04;90.60
74613;BME280;63119;51.788;8.824;2023-07-20T01:45:18;99751.25;;;17.04;90.56
74613;BME280;63119;51.788;8.824;2023-07-20T01:47:43;99749.19;;;16.98;90.78
74613;BME280;63119;51.788;8.824;2023-07-20T01:50:09;99754.06;;;17.03;90.65
74613;BME280;63119;51.788;8.824;2023-07-20T01:52:34;99760.47;;;16.92;91.99
74613;BME280;63119;51.788;8.824;2023-07-20T01:55:00;99758.13;;;17.07;90.80
74613;BME280;63119;51.788;8.824;2023-07-20T01:57:25;99753.63;;;17.25;90.97
74613;BME280;63119;51.788;8.824;2023-07-20T01:59:50;99753.19;;;17.29;90.63
74613;BME280;63119;51.788;8.824;2023-07-20T02:02:16;99747.69;;;17.31;90.80
74613;BME280;63119;51.788;8.824;2023-07-20T02:04:41;99745.06;;;17.21;91.04
74613;BME280;63119;51.788;8.824;2023-07-20T02:07:06;99753.88;;;17.31;91.09
74613;BME280;63119;51.788;8.824;2023-07-20T02:09:32;99745.19;;;17.29;90.67
74613;BME280;63119;51.788;8.824;2023-07-20T02:11:57;99735.16;;;17.31;89.94
74613;BME280;63119;51.788;8.824;2023-07-20T02:14:22;99740.34;;;17.33;89.67
74613;BME280;63119;51.788;8.824;2023-07-20T02:16:48;99734.38;;;17.21;90.48
74613;BME280;63119;51.788;8.824;2023-07-20T02:19:20;99735.38;;;17.20;90.19
74613;BME280;63119;51.788;8.824;2023-07-20T02:21:45;99739.06;;;17.19;90.32
74613;BME280;63119;51.788;8.824;2023-07-20T02:24:12;99743.25;;;17.22;89.84
74613;BME280;63119;51.788;8.824;2023-07-20T02:26:38;99742.16;;;17.15;90.09
74613;BME280;63119;51.788;8.824;2023-07-20T02:29:03;99748.84;;;17.28;89.44
74613;BME280;63119;51.788;8.824;2023-07-20T02:31:30;99751.13;;;17.23;90.51
74613;BME280;63119;51.788;8.824;2023-07-20T02:33:55;99749.19;;;17.33;89.23
74613;BME280;63119;51.788;8.824;2023-07-20T02:36:20;99754.31;;;17.27;89.74
74613;BME280;63119;51.788;8.824;2023-07-20T02:38:46;99757.22;;;17.33;90.00
74613;BME280;63119;51.788;8.824;2023-07-20T02:41:12;99747.00;;;17.29;89.68
74613;BME280;63119;51.788;8.824;2023-07-20T02:43:38;99756.25;;;17.34;89.80
74613;BME280;63119;51.788;8.824;2023-07-20T02:46:03;99746.59;;;17.24;89.97
74613;BME280;63119;51.788;8.824;2023-07-20T02:48:28;99752.34;;;17.11;90.29
74613;BME280;63119;51.788;8.824;2023-07-20T02:50:54;99751.56;;;17.01;90.38
74613;BME280;63119;51.788;8.824;2023-07-20T02:53:19;99752.47;;;16.92;90.90
74613;BME280;63119;51.788;8.824;2023-07-20T02:55:44;99753.56;;;16.99;90.58
74613;BME280;63119;51.788;8.824;2023-07-20T02:58:10;99756.34;;;16.98;91.16
74613;BME280;63119;51.788;8.824;2023-07-20T03:00:35;99744.13;;;16.95;90.82
74613;BME280;63119;51.788;8.824;2023-07-20T03:03:00;99747.31;;;17.08;90.31
74613;BME280;63119;51.788;8.824;2023-07-20T03:05:25;99749.25;;;17.06;90.31
74613;BME280;63119;51.788;8.824;2023-07-20T03:07:53;99748.28;;;17.07;89.67
74613;BME280;63119;51.788;8.824;2023-07-20T03:10:18;99742.16;;;16.97;90.41
74613;BME280;63119;51.788;8.824;2023-07-20T03:12:43;99749.25;;;17.06;90.09
74613;BME280;63119;51.788;8.824;2023-07-20T03:15:09;99748.41;;;17.06;90.10
74613;BME280;63119;51.788;8.824;2023-07-20T03:17:34;99751.25;;;17.04;89.54
74613;BME280;63119;51.788;8.824;2023-07-20T03:20:00;99751.81;;;17.08;90.20
74613;BME280;63119;51.788;8.824;2023-07-20T03:22:26;99755.22;;;17.00;90.36
74613;BME280;63119;51.788;8.824;2023-07-20T03:24:51;99750.88;;;16.99;89.85
74613;BME280;63119;51.788;8.824;2023-07-20T03:27:17;99750.16;;;16.97;89.95
74613;BME280;63119;51.788;8.824;2023-07-20T03:29:42;99747.66;;;16.96;89.88
74613;BME280;63119;51.788;8.824;2023-07-20T03:32:09;99740.63;;;16.94;90.33
74613;BME280;63119;51.788;8.824;2023-07-20T03:34:34;99743.38;;;17.03;89.64
74613;BME280;63119;51.788;8.824;2023-07-20T03:37:00;99753.56;;;16.99;89.79
74613;BME280;63119;51.788;8.824;2023-07-20T03:39:26;99754.22;;;17.01;89.54
74613;BME280;63119;51.788;8.824;2023-07-20T03:41:51;99749.63;;;16.93;89.63
74613;BME280;63119;51.788;8.824;2023-07-20T03:44:16;99752.47;;;16.92;90.05
74613;BME280;63119;51.788;8.824;2023-07-20T03:46:42;99749.41;;;16.87;90.01
74613;BME280;63119;51.788;8.824;2023-07-20T03:49:07;99740.97;;;16.82;90.81
74613;BME280;63119;51.788;8.824;2023-07-20T03:51:34;99742.06;;;16.89;89.96
74613;BME280;63119;51.788;8.824;2023-07-20T03:54:00;99740.38;;;16.88;90.75
74613;BME280;63119;51.788;8.824;2023-07-20T03:56:25;99743.75;;;16.90;90.27
74613;BME280;63119;51.788;8.824;2023-07-20T03:58:51;99744.44;;;16.92;90.10
74613;BME280;63119;51.788;8.824;2023-07-20T04:01:16;99745.72;;;16.88;91.17
74613;BME280;63119;51.788;8.824;2023-07-20T04:03:42;99734.91;;;17.07;90.07
74613;BME280;63119;51.788;8.824;2023-07-20T04:06:08;99749.97;;;17.08;89.98
74613;BME280;63119;51.788;8.824;2023-07-20T04:08:33;99752.84;;;16.97;90.89
74613;BME280;63119;51.788;8.824;2023-07-20T04:11:03;99752.84;;;16.97;91.04
74613;BME280;63119;51.788;8.824;2023-07-20T04:13:29;99758.19;;;16.97;91.96
74613;BME280;63119;51.788;8.824;2023-07-20T04:15:58;99745.41;;;16.91;92.12
74613;BME280;63119;51.788;8.824;2023-07-20T04:18:23;99759.38;;;16.85;90.76
74613;BME280;63119;51.788;8.824;2023-07-20T04:20:49;99759.78;;;16.90;90.83
74613;BME280;63119;51.788;8.824;2023-07-20T04:23:14;99765.88;;;16.82;91.66
74613;BME280;63119;51.788;8.824;2023-07-20T04:25:39;99764.13;;;16.91;90.76
74613;BME280;63119;51.788;8.824;2023-07-20T04:28:08;99759.97;;;16.79;90.81
74613;BME280;63119;51.788;8.824;2023-07-20T04:30:37;99751.88;;;16.71;90.27
74613;BME280;63119;51.788;8.824;2023-07-20T04:33:03;99758.59;;;16.75;89.81
74613;BME280;63119;51.788;8.824;2023-07-20T04:35:52;99766.22;;;16.70;89.51
74613;BME280;63119;51.788;8.824;2023-07-20T04:38:18;99769.19;;;16.67;89.52
74613;BME280;63119;51.788;8.824;2023-07-20T04:40:48;99775.97;;;16.61;89.18
74613;BME280;63119;51.788;8.824;2023-07-20T04:43:14;99773.97;;;16.63;89.58
74613;BME280;63119;51.788;8.824;2023-07-20T04:45:40;99775.13;;;16.61;89.37
74613;BME280;63119;51.788;8.824;2023-07-20T04:48:09;99779.16;;;16.74;88.85
74613;BME280;63119;51.788;8.824;2023-07-20T04:50:35;99773.63;;;16.76;89.14
74613;BME280;63119;51.788;8.824;2023-07-20T04:53:00;99775.06;;;16.70;88.95
74613;BME280;63119;51.788;8.824;2023-07-20T04:55:27;99780.28;;;16.99;87.95
74613;BME280;63119;51.788;8.824;2023-07-20T04:57:53;99774.78;;;17.01;88.16
74613;BME280;63119;51.788;8.824;2023-07-20T05:00:18;99768.19;;;16.95;88.68
74613;BME280;63119;51.788;8.824;2023-07-20T05:02:44;99780.19;;;17.09;87.87
74613;BME280;63119;51.788;8.824;2023-07-20T05:05:10;99780.88;;;16.93;87.32
74613;BME280;63119;51.788;8.824;2023-07-20T05:07:35;99780.88;;;16.93;87.78
74613;BME280;63119;51.788;8.824;2023-07-20T05:10:00;99778.03;;;16.94;88.47
74613;BME280;63119;51.788;8.824;2023-07-20T05:12:26;99775.88;;;16.80;88.61
74613;BME280;63119;51.788;8.824;2023-07-20T05:14:51;99779.53;;;16.79;89.37
74613;BME280;63119;51.788;8.824;2023-07-20T05:17:16;99782.94;;;16.72;90.26
74613;BME280;63119;51.788;8.824;2023-07-20T05:19:41;99791.38;;;16.77;89.76
74613;BME280;63119;51.788;8.824;2023-07-20T05:22:07;99808.66;;;16.73;88.87
74613;BME280;63119;51.788;8.824;2023-07-20T05:24:32;99811.53;;;16.62;86.72
74613;BME280;63119;51.788;8.824;2023-07-20T05:26:58;99806.31;;;16.60;86.99
74613;BME280;63119;51.788;8.824;2023-07-20T05:29:24;99806.78;;;16.56;87.48
74613;BME280;63119;51.788;8.824;2023-07-20T05:31:49;99814.03;;;16.54;86.05
74613;BME280;63119;51.788;8.824;2023-07-20T05:34:14;99813.78;;;16.57;85.42
74613;BME280;63119;51.788;8.824;2023-07-20T05:36:39;99817.31;;;16.48;84.71
74613;BME280;63119;51.788;8.824;2023-07-20T05:39:05;99806.31;;;16.51;84.84
74613;BME280;63119;51.788;8.824;2023-07-20T05:41:31;99815.19;;;16.51;85.30
74613;BME280;63119;51.788;8.824;2023-07-20T05:43:56;99811.97;;;16.48;86.09
74613;BME280;63119;51.788;8.824;2023-07-20T05:46:22;99812.50;;;16.51;84.81
74613;BME280;63119;51.788;8.824;2023-07-20T05:48:49;99810.78;;;16.69;84.69
74613;BME280;63119;51.788;8.824;2023-07-20T05:51:14;99825.66;;;16.81;84.69
74613;BME280;63119;51.788;8.824;2023-07-20T05:53:40;99821.16;;;16.82;84.70
74613;BME280;63119;51.788;8.824;2023-07-20T05:56:06;99824.88;;;16.71;84.76
74613;BME280;63119;51.788;8.824;2023-07-20T05:58:35;99825.94;;;16.78;84.23
74613;BME280;63119;51.788;8.824;2023-07-20T06:01:00;99828.78;;;16.77;84.61
74613;BME280;63119;51.788;8.824;2023-07-20T06:03:25;99829.72;;;16.85;85.99
74613;BME280;63119;51.788;8.824;2023-07-20T06:05:50;99832.78;;;16.90;84.01
74613;BME280;63119;51.788;8.824;2023-07-20T06:08:16;99831.00;;;16.81;84.84
74613;BME280;63119;51.788;8.824;2023-07-20T06:10:42;99816.09;;;16.79;84.46
74613;BME280;63119;51.788;8.824;2023-07-20T06:13:07;99823.16;;;16.70;84.42
74613;BME280;63119;51.788;8.824;2023-07-20T06:15:33;99826.16;;;16.94;84.33
74613;BME280;63119;51.788;8.824;2023-07-20T06:18:00;99830.56;;;17.76;81.37
74613;BME280;63119;51.788;8.824;2023-07-20T06:20:26;99840.63;;;18.43;79.75
74613;BME280;63119;51.788;8.824;2023-07-20T06:22:51;99842.47;;;18.60;78.12
74613;BME280;63119;51.788;8.824;2023-07-20T06:25:17;99848.28;;;18.55;77.05
74613;BME280;63119;51.788;8.824;2023-07-20T06:27:43;99849.97;;;18.57;77.54
74613;BME280;63119;51.788;8.824;2023-07-20T06:30:09;99843.19;;;18.44;76.33
74613;BME280;63119;51.788;8.824;2023-07-20T06:32:35;99838.09;;;18.59;76.52
74613;BME280;63119;51.788;8.824;2023-07-20T06:35:00;99850.22;;;19.05;75.01
74613;BME280;63119;51.788;8.824;2023-07-20T06:37:25;99834.19;;;19.95;71.84
74613;BME280;63119;51.788;8.824;2023-07-20T06:39:51;99846.63;;;20.37;68.80
74613;BME280;63119;51.788;8.824;2023-07-20T06:42:16;99837.41;;;20.39;69.28
74613;BME280;63119;51.788;8.824;2023-07-20T06:44:41;99854.16;;;20.01;70.00
74613;BME280;63119;51.788;8.824;2023-07-20T06:47:07;99851.25;;;19.54;71.59
74613;BME280;63119;51.788;8.824;2023-07-20T06:49:32;99848.97;;;18.91;73.52
74613;BME280;63119;51.788;8.824;2023-07-20T06:51:58;99857.56;;;18.43;74.55
74613;BME280;63119;51.788;8.824;2023-07-20T06:54:23;99857.38;;;18.19;76.04
74613;BME280;63119;51.788;8.824;2023-07-20T06:56:48;99871.25;;;18.15;75.26
74613;BME280;63119;51.788;8.824;2023-07-20T06:59:14;99865.06;;;18.14;77.20
74613;BME280;63119;51.788;8.824;2023-07-20T07:01:39;99868.72;;;18.13;76.59
74613;BME280;63119;51.788;8.824;2023-07-20T07:04:04;99875.75;;;18.14;76.56
74613;BME280;63119;51.788;8.824;2023-07-20T07:06:31;99881.66;;;18.00;76.77
74613;BME280;63119;51.788;8.824;2023-07-20T07:08:56;99885.41;;;18.07;76.67
74613;BME280;63119;51.788;8.824;2023-07-20T07:11:22;99883.78;;;18.32;76.00
74613;BME280;63119;51.788;8.824;2023-07-20T07:13:48;99892.66;;;18.32;75.74
74613;BME280;63119;51.788;8.824;2023-07-20T07:16:15;99891.03;;;18.22;76.13
74613;BME280;63119;51.788;8.824;2023-07-20T07:18:44;99892.97;;;18.29;75.47
74613;BME280;63119;51.788;8.824;2023-07-20T07:21:10;99881.97;;;19.51;73.00
74613;BME280;63119;51.788;8.824;2023-07-20T07:23:35;99894.16;;;20.12;69.96
74613;BME280;63119;51.788;8.824;2023-07-20T07:26:00;99883.38;;;19.96;68.88
74613;BME280;63119;51.788;8.824;2023-07-20T07:28:26;99890.78;;;20.10;67.09
74613;BME280;63119;51.788;8.824;2023-07-20T07:30:55;99888.75;;;19.88;65.37
74613;BME280;63119;51.788;8.824;2023-07-20T07:33:20;99877.66;;;20.71;63.89
74613;BME280;63119;51.788;8.824;2023-07-20T07:35:45;99895.72;;;21.10;62.50
74613;BME280;63119;51.788;8.824;2023-07-20T07:38:11;99893.50;;;20.50;61.78
74613;BME280;63119;51.788;8.824;2023-07-20T07:40:36;99899.00;;;20.25;62.35
74613;BME280;63119;51.788;8.824;2023-07-20T07:43:02;99914.31;;;19.42;65.01
74613;BME280;63119;51.788;8.824;2023-07-20T07:45:27;99901.63;;;19.68;66.10
74613;BME280;63119;51.788;8.824;2023-07-20T07:47:53;99898.16;;;20.08;65.02
74613;BME280;63119;51.788;8.824;2023-07-20T07:50:21;99913.22;;;20.98;62.88
74613;BME280;63119;51.788;8.824;2023-07-20T07:52:49;99906.97;;;21.60;60.01
74613;BME280;63119;51.788;8.824;2023-07-20T07:55:17;99911.53;;;21.91;57.84
74613;BME280;63119;51.788;8.824;2023-07-20T07:57:43;99924.13;;;22.21;56.77
74613;BME280;63119;51.788;8.824;2023-07-20T08:00:09;99916.50;;;22.62;56.21
74613;BME280;63119;51.788;8.824;2023-07-20T08:02:42;99924.81;;;22.38;52.77
74613;BME280;63119;51.788;8.824;2023-07-20T08:05:11;99918.34;;;22.01;54.21
74613;BME280;63119;51.788;8.824;2023-07-20T08:07:36;99919.59;;;21.83;56.36
74613;BME280;63119;51.788;8.824;2023-07-20T08:10:08;99930.75;;;21.79;56.42
74613;BME280;63119;51.788;8.824;2023-07-20T08:12:33;99928.00;;;21.18;56.53
74613;BME280;63119;51.788;8.824;2023-07-20T08:15:01;99921.09;;;21.07;58.10
74613;BME280;63119;51.788;8.824;2023-07-20T08:17:27;99932.56;;;21.87;54.29
74613;BME280;63119;51.788;8.824;2023-07-20T08:19:58;99924.00;;;22.37;53.14
74613;BME280;63119;51.788;8.824;2023-07-20T08:22:24;99930.44;;;22.51;53.27
74613;BME280;63119;51.788;8.824;2023-07-20T08:24:49;99927.88;;;22.95;52.21
74613;BME280;63119;51.788;8.824;2023-07-20T08:27:14;99928.25;;;23.21;49.92
74613;BME280;63119;51.788;8.824;2023-07-20T08:29:40;99939.22;;;23.05;49.37
74613;BME280;63119;51.788;8.824;2023-07-20T08:32:06;99943.44;;;23.22;49.93
74613;BME280;63119;51.788;8.824;2023-07-20T08:34:31;99935.28;;;23.07;51.97
74613;BME280;63119;51.788;8.824;2023-07-20T08:36:57;99940.91;;;23.06;50.59
74613;BME280;63119;51.788;8.824;2023-07-20T08:39:23;99951.41;;;23.01;50.21
74613;BME280;63119;51.788;8.824;2023-07-20T08:41:50;99948.38;;;22.66;52.16
74613;BME280;63119;51.788;8.824;2023-07-20T08:44:16;99945.22;;;22.40;51.02
74613;BME280;63119;51.788;8.824;2023-07-20T08:46:42;99947.03;;;21.94;52.51
74613;BME280;63119;51.788;8.824;2023-07-20T08:51:35;99943.19;;;22.79;50.16
74613;BME280;63119;51.788;8.824;2023-07-20T08:54:00;99948.88;;;22.84;48.62
74613;BME280;63119;51.788;8.824;2023-07-20T08:56:26;99948.25;;;22.97;48.77
74613;BME280;63119;51.788;8.824;2023-07-20T08:58:53;99931.19;;;22.59;49.58
74613;BME280;63119;51.788;8.824;2023-07-20T09:01:19;99947.88;;;22.17;51.05
74613;BME280;63119;51.788;8.824;2023-07-20T09:03:46;99935.63;;;21.84;52.52
74613;BME280;63119;51.788;8.824;2023-07-20T09:06:12;99957.44;;;21.66;52.54
74613;BME280;63119;51.788;8.824;2023-07-20T09:08:38;99951.81;;;21.45;51.86
74613;BME280;63119;51.788;8.824;2023-07-20T09:11:04;99956.28;;;21.53;51.70
74613;BME280;63119;51.788;8.824;2023-07-20T09:13:29;99954.53;;;21.68;51.22
74613;BME280;63119;51.788;8.824;2023-07-20T09:15:54;99954.63;;;21.83;49.99
74613;BME280;63119;51.788;8.824;2023-07-20T09:18:31;99945.69;;;22.21;51.57
74613;BME280;63119;51.788;8.824;2023-07-20T09:21:04;99951.06;;;22.66;47.42
74613;BME280;63119;51.788;8.824;2023-07-20T09:23:38;99955.66;;;22.80;46.50
74613;BME280;63119;51.788;8.824;2023-07-20T09:26:14;99936.63;;;23.26;44.66
74613;BME280;63119;51.788;8.824;2023-07-20T09:28:48;99949.47;;;23.09;46.23
74613;BME280;63119;51.788;8.824;2023-07-20T09:31:17;99947.47;;;22.51;47.61
74613;BME280;63119;51.788;8.824;2023-07-20T09:33:43;99950.88;;;22.45;48.14
74613;BME280;63119;51.788;8.824;2023-07-20T09:36:09;99948.03;;;22.84;46.88
74613;BME280;63119;51.788;8.824;2023-07-20T09:38:37;99955.88;;;22.94;47.53
74613;BME280;63119;51.788;8.824;2023-07-20T09:41:04;99952.63;;;23.13;45.60
74613;BME280;63119;51.788;8.824;2023-07-20T09:43:30;99953.13;;;23.31;45.36
74613;BME280;63119;51.788;8.824;2023-07-20T09:45:57;99937.28;;;23.28;43.51
74613;BME280;63119;51.788;8.824;2023-07-20T09:48:24;99942.41;;;23.52;44.28
74613;BME280;63119;51.788;8.824;2023-07-20T09:50:52;99942.41;;;23.52;42.62
74613;BME280;63119;51.788;8.824;2023-07-20T09:53:19;99955.13;;;23.29;44.64
74613;BME280;63119;51.788;8.824;2023-07-20T09:55:45;99951.28;;;22.57;46.87
74613;BME280;63119;51.788;8.824;2023-07-20T09:58:12;99953.78;;;22.66;46.65
74613;BME280;63119;51.788;8.824;2023-07-20T10:00:39;99949.78;;;23.44;46.09
74613;BME280;63119;51.788;8.824;2023-07-20T10:03:05;99951.53;;;23.36;43.26
74613;BME280;63119;51.788;8.824;2023-07-20T10:05:36;99940.25;;;23.48;42.53
74613;BME280;63119;51.788;8.824;2023-07-20T10:08:07;99939.22;;;23.63;41.63
74613;BME280;63119;51.788;8.824;2023-07-20T10:10:36;99943.69;;;23.56;42.75
74613;BME280;63119;51.788;8.824;2023-07-20T10:13:03;99936.06;;;23.95;41.33
74613;BME280;63119;51.788;8.824;2023-07-20T10:15:43;99927.91;;;23.74;42.47
74613;BME280;63119;51.788;8.824;2023-07-20T10:18:21;99937.56;;;23.48;42.11
74613;BME280;63119;51.788;8.824;2023-07-20T10:20:49;99936.41;;;23.86;42.11
74613;BME280;63119;51.788;8.824;2023-07-20T10:23:17;99945.28;;;24.16;41.90
74613;BME280;63119;51.788;8.824;2023-07-20T10:25:43;99936.53;;;23.99;39.51
74613;BME280;63119;51.788;8.824;2023-07-20T10:28:10;99928.09;;;24.09;39.95
74613;BME280;63119;51.788;8.824;2023-07-20T10:30:39;99929.19;;;23.28;41.37
74613;BME280;63119;51.788;8.824;2023-07-20T10:33:05;99939.22;;;23.05;41.90
74613;BME280;63119;51.788;8.824;2023-07-20T10:35:53;99931.78;;;23.51;42.19
74613;BME280;63119;51.788;8.824;2023-07-20T10:38:19;99928.13;;;23.29;42.12
74613;BME280;63119;51.788;8.824;2023-07-20T10:40:54;99923.00;;;23.63;41.26
74613;BME280;63119;51.788;8.824;2023-07-20T10:43:20;99916.44;;;23.87;38.77
74613;BME280;63119;51.788;8.824;2023-07-20T10:45:50;99917.03;;;24.04;37.88
74613;BME280;63119;51.788;8.824;2023-07-20T10:51:12;99934.56;;;24.50;38.64
74613;BME280;63119;51.788;8.824;2023-07-20T10:53:49;99921.72;;;24.80;39.30
74613;BME280;63119;51.788;8.824;2023-07-20T10:56:20;99918.47;;;24.42;37.67
74613;BME280;63119;51.788;8.824;2023-07-20T10:58:45;99926.56;;;24.63;38.98
74613;BME280;63119;51.788;8.824;2023-07-20T11:01:17;99929.59;;;25.02;38.91
74613;BME280;63119;51.788;8.824;2023-07-20T11:03:49;99916.97;;;24.61;40.22
74613;BME280;63119;51.788;8.824;2023-07-20T11:11:22;99929.56;;;24.75;38.34
74613;BME280;63119;51.788;8.824;2023-07-20T11:19:03;99928.56;;;24.55;38.87
74613;BME280;63119;51.788;8.824;2023-07-20T11:21:38;99926.44;;;24.71;38.94
74613;BME280;63119;51.788;8.824;2023-07-20T11:24:06;99934.00;;;24.12;38.37
74613;BME280;63119;51.788;8.824;2023-07-20T11:26:43;99934.09;;;24.04;39.92
74613;BME280;63119;51.788;8.824;2023-07-20T11:29:16;99908.88;;;23.61;39.74
74613;BME280;63119;51.788;8.824;2023-07-20T11:31:46;99917.66;;;23.84;39.28
74613;BME280;63119;51.788;8.824;2023-07-20T11:34:19;99910.78;;;23.82;38.55
74613;BME280;63119;51.788;8.824;2023-07-20T11:36:47;99916.59;;;24.42;39.26
74613;BME280;63119;51.788;8.824;2023-07-20T11:39:14;99904.06;;;24.14;39.16
74613;BME280;63119;51.788;8.824;2023-07-20T11:41:54;99905.16;;;24.05;39.14
74613;BME280;63119;51.788;8.824;2023-07-20T11:44:21;99896.81;;;24.00;39.35
74613;BME280;63119;51.788;8.824;2023-07-20T11:47:10;99917.06;;;24.25;38.61
74613;BME280;63119;51.788;8.824;2023-07-20T11:49:39;99906.03;;;24.47;38.51
74613;BME280;63119;51.788;8.824;2023-07-20T11:52:06;99895.81;;;24.43;35.83
74613;BME280;63119;51.788;8.824;2023-07-20T11:54:32;99910.19;;;24.92;37.35
74613;BME280;63119;51.788;8.824;2023-07-20T11:57:03;99900.91;;;25.15;37.10
74613;BME280;63119;51.788;8.824;2023-07-20T11:59:30;99891.66;;;24.75;37.14
74613;BME280;63119;51.788;8.824;2023-07-20T12:01:56;99889.91;;;24.61;35.86
74613;BME280;63119;51.788;8.824;2023-07-20T12:04:23;99904.75;;;24.92;37.09
74613;BME280;63119;51.788;8.824;2023-07-20T12:06:53;99884.72;;;24.87;37.26
74613;BME280;63119;51.788;8.824;2023-07-20T12:09:20;99893.75;;;25.35;35.23
74613;BME280;63119;51.788;8.824;2023-07-20T12:11:51;99893.59;;;25.09;35.98
74613;BME280;63119;51.788;8.824;2023-07-20T12:14:17;99889.81;;;24.75;36.16
74613;BME280;63119;51.788;8.824;2023-07-20T12:16:42;99893.94;;;24.92;37.28
74613;BME280;63119;51.788;8.824;2023-07-20T12:19:16;99886.44;;;25.29;37.31
74613;BME280;63119;51.788;8.824;2023-07-20T12:21:41;99888.34;;;25.00;36.89
74613;BME280;63119;51.788;8.824;2023-07-20T12:24:11;99880.84;;;24.75;38.02
74613;BME280;63119;51.788;8.824;2023-07-20T12:26:43;99884.84;;;24.79;38.92
74613;BME280;63119;51.788;8.824;2023-07-20T12:29:09;99878.91;;;24.90;38.96
74613;BME280;63119;51.788;8.824;2023-07-20T12:31:36;99884.44;;;25.10;37.64
74613;BME280;63119;51.788;8.824;2023-07-20T12:34:01;99888.94;;;24.96;38.70
74613;BME280;63119;51.788;8.824;2023-07-20T12:36:34;99865.94;;;24.30;38.99
74613;BME280;63119;51.788;8.824;2023-07-20T12:39:03;99890.41;;;24.22;39.61
74613;BME280;63119;51.788;8.824;2023-07-20T12:41:30;99872.72;;;24.05;39.73
74613;BME280;63119;51.788;8.824;2023-07-20T12:43:59;99888.31;;;23.81;41.51
74613;BME280;63119;51.788;8.824;2023-07-20T12:46:25;99885.66;;;23.67;40.18
74613;BME280;63119;51.788;8.824;2023-07-20T12:48:50;99871.06;;;23.82;39.94
74613;BME280;63119;51.788;8.824;2023-07-20T12:51:19;99872.72;;;23.83;41.48
74613;BME280;63119;51.788;8.824;2023-07-20T12:53:50;99884.69;;;23.95;39.74
74613;BME280;63119;51.788;8.824;2023-07-20T12:56:16;99874.97;;;24.16;38.99
74613;BME280;63119;51.788;8.824;2023-07-20T12:58:47;99872.75;;;24.26;41.29
74613;BME280;63119;51.788;8.824;2023-07-20T13:01:15;99872.25;;;24.37;39.61
74613;BME280;63119;51.788;8.824;2023-07-20T13:03:41;99866.31;;;24.27;39.26
74613;BME280;63119;51.788;8.824;2023-07-20T13:06:06;99856.72;;;24.45;39.90
74613;BME280;63119;51.788;8.824;2023-07-20T13:08:34;99866.38;;;23.91;40.31
74613;BME280;63119;51.788;8.824;2023-07-20T13:11:03;99855.25;;;24.01;39.96
74613;BME280;63119;51.788;8.824;2023-07-20T13:13:33;99866.03;;;24.15;38.67
74613;BME280;63119;51.788;8.824;2023-07-20T13:15:59;99858.72;;;24.37;37.09
74613;BME280;63119;51.788;8.824;2023-07-20T13:18:27;99861.38;;;24.58;37.84
74613;BME280;63119;51.788;8.824;2023-07-20T13:20:56;99867.75;;;25.06;37.85